Flight Track Log - Related Links

Times and Time Zones

All times are in EDT time to prevent confusion due to time zone crossing. See the SWA1031 flight status page for this flight to view local times or setup timezone preferences in your user account.

Time Position Orientation Groundspeed Altitude Reporting Facility
EDT Latitude Longitude Course Direction KTS MPH feet Rate Location/Type
Fri 04:56:53 PM 34.0628 -117.7131 274° West 204 235 5,100  Level Los Angeles Center
Fri 04:57:55 PM 34.0925 -117.7914 295° West 240 276 7,700 2,855 Climbing Los Angeles Center
Fri 04:58:57 PM 34.1353 -117.8533 310° West 249 287 11,000 2,565 Climbing Los Angeles Center
Fri 04:59:59 PM 34.1892 -117.9142 317° Northwest 266 306 13,000 2,448 Climbing Los Angeles Center
Fri 05:01:00 PM 34.3517 -117.8965 59° Northeast  Level FlightAware Approximate
Fri 05:01:02 PM 34.2550 -117.9886 317° Northwest 307 353 16,100  Level Los Angeles Center
Fri 05:02:04 PM 34.3369 -117.9975 355° North 309 356 19,300 2,129 Climbing Los Angeles Center
Fri 05:03:06 PM 34.4267 -117.9425 27° Northeast 342 394 20,500 1,016 Climbing Los Angeles Center
Fri 05:04:08 PM 34.4756 -117.8186 64° Northeast 415 478 21,400 1,317 Climbing Los Angeles Center
Fri 05:05:09 PM 34.5289 -117.6872 64° Northeast 436 502 23,200 1,790 Climbing Los Angeles Center
Fri 05:06:12 PM 34.5931 -117.5222 65° Northeast 453 521 25,100 1,872 Climbing Los Angeles Center
Fri 05:07:14 PM 34.6486 -117.3808 64° Northeast 465 535 27,100 1,790 Climbing Los Angeles Center
Fri 05:08:16 PM 34.7047 -117.2400 64° Northeast 467 537 28,800 1,645 Climbing Los Angeles Center
Fri 05:09:18 PM 34.7767 -117.1117 56° Northeast 458 527 30,500 1,645 Climbing Los Angeles Center
Fri 05:10:20 PM 34.8750 -116.9675 50° Northeast 463 533 32,200 1,548 Climbing Los Angeles Center
Fri 05:11:22 PM 34.9561 -116.8456 51° Northeast 465 535 33,700 1,694 Climbing Los Angeles Center
Fri 05:12:24 PM 35.0381 -116.7267 50° Northeast 464 534 35,700 1,488 Climbing Los Angeles Center
Fri 05:13:27 PM 35.1186 -116.6094 50° Northeast 459 528 36,800 624 Climbing Los Angeles Center
Fri 05:14:29 PM 35.1986 -116.4908 50° Northeast 456 525 37,000 97 Climbing Los Angeles Center
Fri 05:15:31 PM 35.2936 -116.3453 51° Northeast 458 527 37,000  Level Los Angeles Center
Fri 05:16:33 PM 35.3761 -116.2261 50° Northeast 460 529 37,000  Level Los Angeles Center
Fri 05:17:35 PM 35.4564 -116.1044 51° Northeast 460 529 37,000  Level Los Angeles Center
Fri 05:18:37 PM 35.5367 -115.9833 51° Northeast 459 528 37,000  Level Los Angeles Center
Fri 05:19:39 PM 35.6244 -115.8561 50° Northeast 457 526 37,000  Level Los Angeles Center
Fri 05:20:41 PM 35.7042 -115.7394 50° Northeast 448 516 37,000  Level Los Angeles Center
Fri 05:21:43 PM 35.7833 -115.6167 51° Northeast 454 522 37,000  Level Los Angeles Center
Fri 05:22:45 PM 35.8789 -115.4692 51° Northeast 460 529 37,000  Level Los Angeles Center
Fri 05:23:47 PM 35.9597 -115.3469 51° Northeast 463 533 37,000  Level Los Angeles Center
Fri 05:24:50 PM 36.0394 -115.2253 51° Northeast 461 531 37,000  Level Los Angeles Center
Fri 05:25:52 PM 36.1050 -115.0878 59° Northeast 468 539 37,000  Level Los Angeles Center
Fri 05:26:54 PM 36.1594 -114.9067 70° East 471 542 37,000  Level Los Angeles Center
Fri 05:27:56 PM 36.2056 -114.7558 69° East 471 542 37,000  Level Los Angeles Center
Fri 05:28:57 PM 36.2414 -114.6344 70° East 472 543 37,000  Level Los Angeles Center
Fri 05:30:00 PM 36.2975 -114.4522 69° East 472 543 37,000  Level Los Angeles Center
Fri 05:31:02 PM 36.3422 -114.2994 70° East 473 544 37,000  Level Los Angeles Center
Fri 05:32:04 PM 36.3889 -114.1486 69° East 470 541 37,000  Level Los Angeles Center
Fri 05:33:06 PM 36.4414 -113.9697 70° East 463 533 37,000  Level Los Angeles Center
Fri 05:34:08 PM 36.4872 -113.8197 69° East 464 534 37,000  Level Los Angeles Center
Fri 05:35:10 PM 36.5269 -113.6828 70° East 463 533 37,000  Level Los Angeles Center
Fri 05:36:13 PM 36.5797 -113.5028 70° East 463 533 37,000  Level Los Angeles Center
Fri 05:37:15 PM 36.6244 -113.3528 70° East 464 534 37,000  Level Los Angeles Center
Fri 05:38:17 PM 36.6681 -113.2022 70° East 465 535 37,000  Level Los Angeles Center
Fri 05:39:19 PM 36.7111 -113.0517 70° East 465 535 37,000  Level Los Angeles Center
Fri 05:40:21 PM 36.7553 -112.8994 70° East 468 539 37,000  Level Los Angeles Center
Fri 05:41:23 PM 36.8069 -112.7156 71° East 472 543 37,000  Level Los Angeles Center
Fri 05:42:25 PM 36.8511 -112.5631 70° East 471 542 37,000  Level Los Angeles Center
Fri 05:43:27 PM 36.8939 -112.4094 71° East 472 543 37,000  Level Los Angeles Center
Fri 05:44:29 PM 36.9375 -112.2556 70° East 472 543 37,000  Level Los Angeles Center
Fri 05:45:31 PM 36.9808 -112.1019 71° East 472 543 37,000  Level Los Angeles Center
Fri 05:46:33 PM 37.0244 -111.9475 70° East 473 544 37,000  Level Denver Center
Fri 05:47:35 PM 37.0744 -111.7628 71° East 470 541 37,000  Level Denver Center
Fri 05:48:37 PM 37.1161 -111.6089 71° East 469 540 37,000 339 Level Denver Center
Fri 05:49:39 PM 37.1494 -111.4867 71° East 467 537 37,700 968 Climbing Denver Center
Fri 05:50:41 PM 37.1978 -111.3036 72° East 463 533 39,000 629 Climbing Denver Center
Fri 05:51:43 PM 37.2392 -111.1519 71° East 462 532 39,000  Level Denver Center
Fri 05:52:57 PM 37.2878 -110.9678 72° East 466 536 39,000  Level Denver Center
Fri 05:54:00 PM 37.3358 -110.7839 72° East 462 532 39,000  Level Denver Center
Fri 05:55:02 PM 37.3778 -110.6306 71° East 464 534 39,000  Level Denver Center
Fri 05:56:04 PM 37.4181 -110.4769 72° East 464 534 39,000  Level Denver Center
Fri 05:57:06 PM 37.4575 -110.3239 72° East 462 532 39,000  Level Denver Center
Fri 05:58:08 PM 37.5033 -110.1439 72° East 469 540 39,000  Level Denver Center
Fri 05:59:10 PM 37.5422 -109.9939 72° East 471 542 39,000  Level Denver Center
Fri 06:00:12 PM 37.5869 -109.8194 72° East 468 539 39,000  Level Denver Center
Fri 06:01:14 PM 37.6264 -109.6667 72° East 475 547 39,000  Level Denver Center
Fri 06:02:16 PM 37.6703 -109.4878 73° East 476 548 39,000  Level Denver Center
Fri 06:03:18 PM 37.7089 -109.3347 72° East 477 549 39,000  Level Denver Center
Fri 06:04:20 PM 37.7475 -109.1817 72° East 478 550 39,000  Level Denver Center
Fri 06:05:34 PM 37.7919 -109.0025 73° East 479 551 39,000  Level Denver Center
Fri 06:06:49 PM 37.8525 -108.8061 69° East 472 543 39,000  Level Denver Center
Fri 06:07:51 PM 37.9114 -108.6369 66° East 470 541 39,000  Level Denver Center
Fri 06:08:53 PM 37.9694 -108.4706 66° East 464 534 39,000  Level Denver Center
Fri 06:09:55 PM 38.0192 -108.3275 66° East 464 534 39,000  Level Denver Center
Fri 06:10:57 PM 38.0742 -108.1658 67° East 471 542 39,000  Level Denver Center
Fri 06:11:59 PM 38.1317 -107.9972 67° East 470 541 39,000  Level Denver Center
Fri 06:13:01 PM 38.1819 -107.8517 66° East 470 541 39,000  Level Denver Center
Fri 06:14:03 PM 38.2222 -107.7317 67° East 466 536 39,000  Level Denver Center
Fri 06:15:06 PM 38.2881 -107.5350 67° East 472 543 39,000  Level Denver Center
Fri 06:16:08 PM 38.3453 -107.3619 67° East 475 547 39,000  Level Denver Center
Fri 06:17:10 PM 38.3956 -107.2142 66° East 476 548 39,000  Level Denver Center
Fri 06:18:12 PM 38.4431 -107.0694 67° East 473 544 39,000  Level Denver Center
Fri 06:19:14 PM 38.4853 -106.8747 74° East 474 545 39,000  Level Denver Center
Fri 06:20:16 PM 38.5178 -106.7108 76° East 478 550 39,000  Level Denver Center
Fri 06:21:18 PM 38.5497 -106.5478 76° East 474 545 39,000  Level Denver Center
Fri 06:22:20 PM 38.5817 -106.3844 76° East 475 547 39,000  Level Denver Center
Fri 06:23:34 PM 38.6133 -106.2219 76° East 473 544 39,000  Level Denver Center
Fri 06:24:36 PM 38.6561 -105.9961 76° East 472 543 39,000  Level Denver Center
Fri 06:25:50 PM 38.6875 -105.8306 76° East 474 545 39,000  Level Denver Center
Fri 06:26:53 PM 38.7233 -105.6381 77° East 476 548 39,000  Level Denver Center
Fri 06:27:55 PM 38.7539 -105.4722 77° East 476 548 39,000  Level Denver Center
Fri 06:28:57 PM 38.7894 -105.2775 77° East 478 550 39,000  Level Denver Center
Fri 06:29:59 PM 38.8203 -105.1114 77° East 476 548 39,000  Level Denver Center
Fri 06:31:13 PM 38.8497 -104.9436 77° East 480 552 39,000  Level Denver Center
Fri 06:32:16 PM 38.8858 -104.7489 77° East 480 552 39,000  Level Denver Center
Fri 06:33:18 PM 38.9156 -104.5831 77° East 476 548 39,000  Level Denver Center
Fri 06:34:20 PM 38.9503 -104.3883 77° East 478 550 39,000  Level Denver Center
Fri 06:35:22 PM 38.9783 -104.2208 78° East 478 550 39,000  Level Denver Center
Fri 06:36:24 PM 39.0072 -104.0531 77° East 479 551 39,000  Level Denver Center
Fri 06:37:26 PM 39.0369 -103.8853 77° East 480 552 39,000  Level Denver Center
Fri 06:38:28 PM 39.0644 -103.7153 78° East 482 555 39,000  Level Denver Center
Fri 06:39:30 PM 39.0936 -103.5472 77° East 479 551 39,000  Level Denver Center
Fri 06:40:32 PM 39.1267 -103.3500 78° East 480 552 39,000  Level Denver Center
Fri 06:41:34 PM 39.1550 -103.1814 78° East 479 551 39,000  Level Denver Center
Fri 06:42:36 PM 39.1817 -103.0136 78° East 476 548 39,000  Level Denver Center
Fri 06:43:38 PM 39.2094 -102.8456 78° East 476 548 39,000  Level Denver Center
Fri 06:44:40 PM 39.2325 -102.6828 80° East 476 548 39,000  Level Denver Center
Fri 06:45:55 PM 39.2672 -102.4719 78° East 471 542 39,000  Level Denver Center
Fri 06:46:57 PM 39.2964 -102.2858 78° East 473 544 39,000  Level Denver Center
Fri 06:47:59 PM 39.3206 -102.1247 79° East 475 547 39,000  Level Denver Center
Fri 06:49:01 PM 39.3517 -101.9400 78° East 475 547 39,000  Level Denver Center
Fri 06:50:02 PM 39.3714 -101.8053 79° East 478 550 39,000  Level Denver Center
Fri 06:51:04 PM 39.3956 -101.6419 79° East 483 556 39,000  Level Denver Center
Fri 06:52:07 PM 39.4339 -101.4286 77° East 481 554 39,000  Level Denver Center
Fri 06:53:09 PM 39.4658 -101.2394 78° East 483 556 39,000  Level Denver Center
Fri 06:54:11 PM 39.4928 -101.0744 78° East 489 563 39,000  Level Denver Center
Fri 06:55:13 PM 39.5214 -100.9106 77° East 491 565 39,000  Level Denver Center
Fri 06:56:14 PM 39.5486 -100.7428 78° East 496 571 39,000  Level Denver Center
Fri 06:57:16 PM 39.5808 -100.5469 78° East 499 574 39,000  Level Denver Center
Fri 06:58:18 PM 39.6119 -100.3500 78° East 499 574 39,000  Level Denver Center
Fri 06:59:20 PM 39.6400 -100.1817 78° East 501 577 39,000  Level Denver Center
Fri 07:00:22 PM 39.6703 -99.9861 79° East 498 573 39,000  Level Denver Center
Fri 07:01:24 PM 39.6956 -99.8275 78° East 495 570 39,000  Level Denver Center
Fri 07:02:25 PM 39.7225 -99.6517 79° East 498 573 39,000  Level Denver Center
Fri 07:03:28 PM 39.7556 -99.4397 78° East 499 574 39,000  Level Denver Center
Fri 07:04:29 PM 39.7822 -99.2631 79° East 499 574 39,000  Level Denver Center
Fri 07:05:31 PM 39.8083 -99.0853 79° East 501 577 39,000  Level Denver Center
Fri 07:06:33 PM 39.8344 -98.9089 79° East 499 574 39,000  Level Denver Center
Fri 07:07:35 PM 39.8603 -98.7333 79° East 497 572 39,000  Level Denver Center
Fri 07:08:32 PM 39.8858 -98.5586 79° East 497 572 39,000  Level Minneapolis Center
Fri 07:09:34 PM 39.9108 -98.3842 79° East 494 568 39,000  Level Minneapolis Center
Fri 07:10:36 PM 39.9356 -98.2114 79° East 490 564 39,000  Level Minneapolis Center
Fri 07:11:38 PM 39.9650 -98.0033 79° East 489 563 39,000  Level Minneapolis Center
Fri 07:12:40 PM 39.9886 -97.8311 80° East 485 558 39,000  Level Minneapolis Center
Fri 07:13:43 PM 40.0114 -97.6600 80° East 483 556 39,000  Level Minneapolis Center
Fri 07:14:45 PM 40.0344 -97.4881 80° East 482 555 39,000  Level Minneapolis Center
Fri 07:15:47 PM 40.0578 -97.3158 80° East 482 555 39,000  Level Minneapolis Center
Fri 07:16:49 PM 40.0844 -97.1144 80° East 481 554 39,000  Level Minneapolis Center
Fri 07:17:51 PM 40.1075 -96.9414 80° East 483 556 39,000  Level Minneapolis Center
Fri 07:18:53 PM 40.1300 -96.7686 80° East 485 558 39,000  Level Minneapolis Center
Fri 07:19:55 PM 40.1514 -96.5958 81° East 484 557 39,000  Level Minneapolis Center
Fri 07:20:57 PM 40.1728 -96.4217 81° East 485 558 39,000  Level Minneapolis Center
Fri 07:21:59 PM 40.1944 -96.2494 81° East 485 558 39,000  Level Minneapolis Center
Fri 07:23:01 PM 40.2297 -96.0450 77° East 482 555 39,000  Level Minneapolis Center
Fri 07:24:03 PM 40.2614 -95.8717 76° East 488 562 39,000  Level Minneapolis Center
Fri 07:25:05 PM 40.2875 -95.7356 76° East 488 562 39,000  Level Minneapolis Center
Fri 07:26:07 PM 40.3244 -95.5333 76° East 481 554 39,000  Level Minneapolis Center
Fri 07:27:09 PM 40.3553 -95.3628 77° East 482 555 39,000  Level Minneapolis Center
Fri 07:28:11 PM 40.3919 -95.1564 77° East 486 559 39,000  Level Minneapolis Center
Fri 07:29:25 PM 40.4231 -94.9822 77° East 489 563 39,000  Level Minneapolis Center
Fri 07:30:40 PM 40.4597 -94.7747 77° East 489 563 39,000  Level Minneapolis Center
Fri 07:31:42 PM 40.4978 -94.5553 77° East 492 566 39,000  Level Minneapolis Center
Fri 07:32:45 PM 40.5286 -94.3800 77° East 493 567 39,000  Level Minneapolis Center
Fri 07:33:47 PM 40.5578 -94.2053 78° East 493 567 39,000  Level Minneapolis Center
Fri 07:34:49 PM 40.5861 -94.0289 78° East 496 571 39,000  Level Minneapolis Center
Fri 07:35:51 PM 40.6186 -93.8189 78° East 494 568 39,000  Level Minneapolis Center
Fri 07:36:53 PM 40.6442 -93.6411 79° East 496 571 39,000  Level Minneapolis Center
Fri 07:37:55 PM 40.6694 -93.4636 79° East 495 570 39,000 -48 Level Minneapolis Center
Fri 07:38:57 PM 40.6961 -93.2856 79° East 497 572 38,900 -645 Descending Minneapolis Center
Fri 07:41:01 PM 40.7478 -92.9236 79° East 503 579 37,000 -610 Descending Minneapolis Center
Fri 07:42:04 PM 40.7764 -92.7056 80° East 502 578 37,000  Level Chicago Center
Fri 07:43:07 PM 40.8014 -92.5222 80° East 506 582 37,000  Level Chicago Center
Fri 07:44:08 PM 40.8267 -92.3417 79° East 502 578 37,000  Level Chicago Center
Fri 07:45:10 PM 40.8511 -92.1589 80° East 505 581 37,000 -1,161 Level Chicago Center
Fri 07:46:12 PM 40.8747 -91.9764 80° East 506 582 34,600 -2,710 Descending Chicago Center
Fri 07:47:14 PM 40.8989 -91.7931 80° East 508 585 31,400 -1,742 Descending Chicago Center
Fri 07:48:16 PM 40.9267 -91.5697 81° East 514 592 31,000 -194 Descending Chicago Center
Fri 07:49:18 PM 40.9506 -91.3817 80° East 522 601 31,000  Level Chicago Center
Fri 07:50:20 PM 40.9739 -91.1839 81° East 524 603 31,000 -1,306 Level Chicago Center
Fri 07:51:22 PM 40.9981 -90.9950 80° East 519 597 28,300 -2,613 Descending Chicago Center
Fri 07:52:24 PM 41.0197 -90.8072 81° East 517 595 25,600 -2,081 Descending Chicago Center
Fri 07:53:26 PM 41.0428 -90.6300 80° East 491 565 24,000 -774 Descending Chicago Center
Fri 07:54:28 PM 41.0625 -90.4578 81° East 472 543 24,000  Level Chicago Center
Fri 07:55:30 PM 41.0836 -90.2808 81° East 481 554 24,000 -435 Level Chicago Center
Fri 07:56:32 PM 41.1064 -90.0756 82° East 463 533 23,100 -1,355 Descending Chicago Center
Fri 07:57:34 PM 41.1233 -89.9214 82° East 424 488 21,200 -1,839 Descending Chicago Center
Fri 07:58:36 PM 41.1406 -89.7728 81° East 406 467 19,300 -1,667 Descending Chicago Center
Fri 07:59:40 PM 41.1642 -89.6342 77° East 385 443 17,700 -1,714 Descending Chicago Center
Fri 08:00:42 PM 41.2036 -89.5072 68° East 373 429 15,700 -1,452 Descending Chicago Center
Fri 08:01:44 PM 41.2389 -89.3836 69° East 361 415 14,700 -1,065 Descending Chicago Center
Fri 08:02:46 PM 41.2822 -89.2397 68° East 351 404 13,500 -968 Descending Chicago Center
Fri 08:03:48 PM 41.3114 -89.1364 69° East 347 399 12,700 -968 Descending Chicago Center
Fri 08:04:50 PM 41.3514 -88.9978 69° East 338 389 11,500 -1,258 Descending Chicago Center
Fri 08:05:52 PM 41.3833 -88.8861 69° East 327 376 10,100 -1,161 Descending Chicago Center
Fri 08:06:54 PM 41.4144 -88.7789 69° East 312 359 9,100 -1,306 Descending Chicago Center
Fri 08:07:56 PM 41.4447 -88.6781 68° East 298 343 7,400 -1,355 Descending Chicago Center
Fri 08:08:58 PM 41.4739 -88.5758 69° East 297 342 6,300 -677 Descending Chicago Center
Fri 08:10:00 PM 41.5106 -88.4606 67° East 286 329 6,000 -629 Descending Chicago Center
Fri 08:11:02 PM 41.5506 -88.3694 60° Northeast 291 335 5,000 -484 Descending Chicago Center
Fri 08:12:04 PM 41.5589 -88.2706 84° East 277 319 5,000  Level Chicago Center
Fri 08:13:07 PM 41.5664 -88.1694 84° East 274 315 5,000  Level Chicago Center
Fri 08:14:09 PM 41.5747 -88.0675 84° East 274 315 5,000 -194 Level Chicago Center
Fri 08:15:11 PM 41.5819 -87.9647 85° East 274 315 4,600 -581 Descending Chicago Center
Fri 08:16:13 PM 41.6047 -87.8683 72° East 277 319 3,800 -774 Descending Chicago Center
Fri 08:17:15 PM 41.6575 -87.7800 51° Northeast 262 302 3,000 -629 Descending Chicago Center
Fri 08:18:17 PM 41.7108 -87.7258 37° Northeast 263 303 2,500 -248 Descending Chicago Center
Fri 08:19:16 PM 41.7667 -87.7000 19° North 227 261 2,500 -531 Level Chicago TRACON
Fri 08:20:10 PM 41.8167 -87.7000 360° North 159 183 1,500 -842 Descending Chicago TRACON
Fri 08:21:10 PM 41.8000 -87.7333 236° Southwest 128 147 900 -600 Descending Chicago TRACON

Login

Don't have an account? Register now (free) for customized features, flight alerts, and more!